createdAt,value
2022-09-18T00:00:01.958Z,10.5
2022-09-18T00:01:01.531Z,10.5
2022-09-18T00:02:01.176Z,10.6
2022-09-18T00:03:01.744Z,10.6
2022-09-18T00:04:01.346Z,10.6
2022-09-18T00:05:01.969Z,10.5
2022-09-18T00:06:01.543Z,10.5
2022-09-18T00:07:01.662Z,10.5
2022-09-18T00:08:01.760Z,10.5
2022-09-18T00:09:01.445Z,10.5
2022-09-18T00:10:01.956Z,10.5
2022-09-18T00:11:01.655Z,10.5
2022-09-18T00:12:01.115Z,10.5
2022-09-18T00:13:01.687Z,10.5
2022-09-18T00:14:01.264Z,10.5
2022-09-18T00:15:01.968Z,10.5
2022-09-18T00:16:01.545Z,10.6
2022-09-18T00:17:02.942Z,10.5
2022-09-18T00:18:01.631Z,10.5
2022-09-18T00:19:01.216Z,10.5
2022-09-18T00:20:02.031Z,10.5
2022-09-18T00:21:01.450Z,10.4
2022-09-18T00:22:02.022Z,10.5
2022-09-18T00:23:01.594Z,10.5
2022-09-18T00:24:01.223Z,10.4
2022-09-18T00:25:01.738Z,10.5
2022-09-18T00:26:01.312Z,10.5
2022-09-18T00:27:02.007Z,10.5
2022-09-18T00:28:01.546Z,10.4
2022-09-18T00:29:01.135Z,10.5
2022-09-18T00:30:01.702Z,10.4
2022-09-18T00:31:01.322Z,10.5
2022-09-18T00:32:01.866Z,10.5
2022-09-18T00:33:01.440Z,10.5
2022-09-18T00:34:02.019Z,10.5
2022-09-18T00:35:01.596Z,10.5
2022-09-18T00:36:01.190Z,10.5
2022-09-18T00:37:01.743Z,10.5
2022-09-18T00:38:01.323Z,10.5
2022-09-18T00:39:01.934Z,10.5
2022-09-18T00:40:01.606Z,10.5
2022-09-18T00:41:01.155Z,10.5
2022-09-18T00:42:01.749Z,10.5
2022-09-18T00:43:01.454Z,10.5
2022-09-18T00:44:01.903Z,10.5
2022-09-18T00:45:01.477Z,10.5
2022-09-18T00:46:01.048Z,10.5
2022-09-18T00:47:01.637Z,10.5
2022-09-18T00:48:01.210Z,10.4
2022-09-18T00:49:01.781Z,10.4
2022-09-18T00:50:01.353Z,10.4
2022-09-18T00:51:01.924Z,10.5
2022-09-18T00:52:01.515Z,10.5
2022-09-18T00:53:01.075Z,10.4
2022-09-18T00:54:01.712Z,10.5
2022-09-18T00:55:01.295Z,10.4
2022-09-18T00:56:01.866Z,10.4
2022-09-18T00:57:01.457Z,10.4
2022-09-18T00:58:02.023Z,10.5
2022-09-18T00:59:01.719Z,10.4
2022-09-18T01:00:01.254Z,10.4
2022-09-18T01:01:01.871Z,10.4
2022-09-18T01:02:01.572Z,10.4
2022-09-18T01:03:01.063Z,10.4
2022-09-18T01:04:01.659Z,10.4
2022-09-18T01:05:01.232Z,10.4
2022-09-18T01:06:01.805Z,10.4
2022-09-18T01:07:01.377Z,10.5
2022-09-18T01:08:01.949Z,10.5
2022-09-18T01:09:01.597Z,10.5
2022-09-18T01:10:01.221Z,10.5
2022-09-18T01:11:01.755Z,10.5
2022-09-18T01:12:01.330Z,10.5
2022-09-18T01:13:01.898Z,10.5
2022-09-18T01:14:01.489Z,10.6
2022-09-18T01:15:01.166Z,10.6
2022-09-18T01:16:01.670Z,10.6
2022-09-18T01:17:01.274Z,10.6
2022-09-18T01:18:01.845Z,10.6
2022-09-18T01:19:01.437Z,10.6
2022-09-18T01:20:02.181Z,10.6
2022-09-18T01:21:01.754Z,10.6
2022-09-18T01:22:01.223Z,10.6
2022-09-18T01:23:01.807Z,10.6
2022-09-18T01:24:01.500Z,10.6
2022-09-18T01:25:01.963Z,10.7
2022-09-18T01:26:01.541Z,10.7
2022-09-18T01:27:01.115Z,10.7
2022-09-18T01:28:01.687Z,10.7
2022-09-18T01:29:01.274Z,10.7
2022-09-18T01:30:01.844Z,10.7
2022-09-18T01:31:01.654Z,10.7
2022-09-18T01:32:02.013Z,10.7
2022-09-18T01:33:01.593Z,10.7
2022-09-18T01:34:01.167Z,10.7
2022-09-18T01:35:09.505Z,10.7
2022-09-18T01:36:01.294Z,10.7
2022-09-18T01:37:01.883Z,10.7
2022-09-18T01:38:01.454Z,10.7
2022-09-18T01:39:02.082Z,10.7
2022-09-18T01:40:01.751Z,10.7
2022-09-18T01:41:01.275Z,10.8
2022-09-18T01:42:01.870Z,10.7
2022-09-18T01:43:01.439Z,10.7
2022-09-18T01:44:02.011Z,10.7
2022-09-18T01:45:01.583Z,10.7
2022-09-18T01:46:01.155Z,10.7
2022-09-18T01:47:01.964Z,10.8
2022-09-18T01:48:01.374Z,10.7
2022-09-18T01:49:01.952Z,10.8
2022-09-18T01:50:01.533Z,10.8
2022-09-18T01:51:01.107Z,10.8
2022-09-18T01:52:01.701Z,10.7
2022-09-18T01:53:01.275Z,10.7
2022-09-18T01:54:01.955Z,10.7
2022-09-18T01:55:01.507Z,10.8
2022-09-18T01:56:01.080Z,10.8
2022-09-18T01:57:01.671Z,10.8
2022-09-18T01:58:01.247Z,10.8
2022-09-18T01:59:01.837Z,10.8
2022-09-18T02:00:01.409Z,10.8
2022-09-18T02:01:01.983Z,10.8
2022-09-18T02:02:01.668Z,10.8
2022-09-18T02:03:01.370Z,10.8
2022-09-18T02:04:01.805Z,10.8
2022-09-18T02:05:01.381Z,10.8
2022-09-18T02:06:01.954Z,10.8
2022-09-18T02:07:01.529Z,10.8
2022-09-18T02:08:01.100Z,10.8
2022-09-18T02:09:01.736Z,10.8
2022-09-18T02:10:01.332Z,10.8
2022-09-18T02:11:01.952Z,10.8
2022-09-18T02:12:01.534Z,10.8
2022-09-18T02:13:01.100Z,10.8
2022-09-18T02:14:01.687Z,10.8
2022-09-18T02:15:01.279Z,10.8
2022-09-18T02:16:01.913Z,10.8
2022-09-18T02:17:01.480Z,10.8
2022-09-18T02:18:01.056Z,10.8
2022-09-18T02:19:01.747Z,10.8
2022-09-18T02:20:01.300Z,10.8
2022-09-18T02:21:01.857Z,10.8
2022-09-18T02:22:01.433Z,10.8
2022-09-18T02:23:02.006Z,10.8
2022-09-18T02:24:01.648Z,10.8
2022-09-18T02:25:01.252Z,10.9
2022-09-18T02:26:01.838Z,10.8
2022-09-18T02:27:01.410Z,10.9
2022-09-18T02:28:01.983Z,10.9
2022-09-18T02:29:01.555Z,10.9
2022-09-18T02:30:01.130Z,10.9
2022-09-18T02:31:01.802Z,10.9
2022-09-18T02:32:01.351Z,10.8
2022-09-18T02:33:01.922Z,10.9
2022-09-18T02:34:01.494Z,10.8
2022-09-18T02:35:01.199Z,10.9
2022-09-18T02:36:01.661Z,11
2022-09-18T02:37:01.234Z,10.9
2022-09-18T02:38:01.806Z,10.9
2022-09-18T02:39:01.450Z,10.9
2022-09-18T02:40:02.017Z,10.8
2022-09-18T02:41:01.628Z,10.9
2022-09-18T02:42:01.194Z,10.9
2022-09-18T02:43:01.811Z,10.9
2022-09-18T02:44:01.382Z,10.9
2022-09-18T02:45:01.953Z,10.9
2022-09-18T02:46:01.581Z,10.9
2022-09-18T02:47:01.098Z,10.9
2022-09-18T02:48:01.689Z,10.9
2022-09-18T02:49:01.264Z,10.9
2022-09-18T02:50:01.837Z,10.9
2022-09-18T02:51:01.541Z,10.9
2022-09-18T02:52:02.014Z,10.9
2022-09-18T02:53:01.587Z,10.9
2022-09-18T02:54:01.179Z,10.9
2022-09-18T02:55:01.734Z,10.9
2022-09-18T02:56:01.329Z,10.8
2022-09-18T02:57:01.895Z,10.9
2022-09-18T02:58:01.493Z,10.9
2022-09-18T02:59:01.065Z,10.8
2022-09-18T03:00:01.665Z,10.9
2022-09-18T03:01:01.268Z,10.9
2022-09-18T03:02:01.942Z,10.9
2022-09-18T03:03:01.601Z,10.9
2022-09-18T03:04:02.040Z,10.8
2022-09-18T03:05:01.615Z,10.8
2022-09-18T03:06:01.190Z,10.8
2022-09-18T03:07:01.882Z,10.8
2022-09-18T03:08:01.443Z,10.9
2022-09-18T03:09:02.066Z,10.9
2022-09-18T03:10:01.706Z,10.9
2022-09-18T03:11:01.255Z,10.9
2022-09-18T03:12:01.813Z,10.9
2022-09-18T03:13:01.403Z,10.9
2022-09-18T03:14:01.990Z,10.9
2022-09-18T03:15:01.564Z,10.9
2022-09-18T03:16:01.183Z,10.9
2022-09-18T03:17:01.715Z,10.9
2022-09-18T03:18:01.300Z,10.9
2022-09-18T03:19:01.892Z,10.9
2022-09-18T03:20:01.481Z,10.9
2022-09-18T03:21:01.046Z,10.9
2022-09-18T03:22:01.620Z,10.9
2022-09-18T03:23:01.326Z,10.9
2022-09-18T03:24:02.002Z,10.9
2022-09-18T03:25:01.434Z,11
2022-09-18T03:26:02.006Z,11
2022-09-18T03:27:01.580Z,11
2022-09-18T03:28:01.158Z,11
2022-09-18T03:29:01.729Z,11
2022-09-18T03:30:01.319Z,11
2022-09-18T03:31:01.965Z,11
2022-09-18T03:32:01.527Z,11
2022-09-18T03:33:01.094Z,10.9
2022-09-18T03:34:01.669Z,10.9
2022-09-18T03:35:01.261Z,10.8
2022-09-18T03:36:01.824Z,10.8
2022-09-18T03:37:01.398Z,10.8
2022-09-18T03:38:01.970Z,10.8
2022-09-18T03:39:01.776Z,10.8
2022-09-18T03:40:01.277Z,10.8
2022-09-18T03:41:01.780Z,10.7
2022-09-18T03:42:01.351Z,10.7
2022-09-18T03:43:01.925Z,10.7
2022-09-18T03:44:01.494Z,10.7
2022-09-18T03:45:01.091Z,10.6
2022-09-18T03:46:01.725Z,10.6
2022-09-18T03:47:01.322Z,10.6
2022-09-18T03:48:01.892Z,10.5
2022-09-18T03:49:01.468Z,10.4
2022-09-18T03:50:02.041Z,10.4
2022-09-18T03:51:01.615Z,10.4
2022-09-18T03:52:01.206Z,10.3
2022-09-18T03:53:01.773Z,10.3
2022-09-18T03:54:01.462Z,10.3
2022-09-18T03:55:02.049Z,10.3
2022-09-18T03:56:01.584Z,10.3
2022-09-18T03:57:01.182Z,10.3
2022-09-18T03:58:01.730Z,10.4
2022-09-18T03:59:01.301Z,10.4
2022-09-18T04:00:01.875Z,10.4
2022-09-18T04:01:01.448Z,10.4
2022-09-18T04:02:02.122Z,10.4
2022-09-18T04:03:01.812Z,10.4
2022-09-18T04:04:01.266Z,10.4
2022-09-18T04:05:01.840Z,10.4
2022-09-18T04:06:01.413Z,10.4
2022-09-18T04:07:02.006Z,10.4
2022-09-18T04:08:01.580Z,10.5
2022-09-18T04:09:01.293Z,10.4
2022-09-18T04:10:01.723Z,10.5
2022-09-18T04:11:01.416Z,10.5
2022-09-18T04:12:01.944Z,10.5
2022-09-18T04:13:01.514Z,10.5
2022-09-18T04:14:01.088Z,10.4
2022-09-18T04:15:01.663Z,10.5
2022-09-18T04:16:01.288Z,10.5
2022-09-18T04:17:01.839Z,10.5
2022-09-18T04:18:01.415Z,10.6
2022-09-18T04:19:02.004Z,10.6
2022-09-18T04:20:01.576Z,10.6
2022-09-18T04:21:01.149Z,10.5
2022-09-18T04:22:01.749Z,10.6
2022-09-18T04:23:01.324Z,10.6
2022-09-18T04:24:01.972Z,10.6
2022-09-18T04:25:01.559Z,10.6
2022-09-18T04:26:01.131Z,10.6
2022-09-18T04:27:01.845Z,10.6
2022-09-18T04:28:01.360Z,10.6
2022-09-18T04:29:01.927Z,10.6
2022-09-18T04:30:01.503Z,10.6
2022-09-18T04:31:01.121Z,10.6
2022-09-18T04:32:01.680Z,10.6
2022-09-18T04:33:01.259Z,10.5
2022-09-18T04:34:01.850Z,10.4
2022-09-18T04:35:01.427Z,10.4
2022-09-18T04:36:02.000Z,10.5
2022-09-18T04:37:01.584Z,10.5
2022-09-18T04:38:01.160Z,10.4
2022-09-18T04:39:01.829Z,10.5
2022-09-18T04:40:01.424Z,10.5
2022-09-18T04:41:01.990Z,10.5
2022-09-18T04:42:01.571Z,10.4
2022-09-18T04:43:01.255Z,10.4
2022-09-18T04:44:01.725Z,10.5
2022-09-18T04:45:01.301Z,10.5
2022-09-18T04:46:01.895Z,10.5
2022-09-18T04:47:01.486Z,10.5
2022-09-18T04:48:02.049Z,10.5
2022-09-18T04:49:01.621Z,10.5
2022-09-18T04:50:01.198Z,10.5
2022-09-18T04:51:01.791Z,10.6
2022-09-18T04:52:01.363Z,10.6
2022-09-18T04:53:01.933Z,10.6
2022-09-18T04:54:01.593Z,10.6
2022-09-18T04:55:01.083Z,10.6
2022-09-18T04:56:01.677Z,10.6
2022-09-18T04:57:01.250Z,10.6
2022-09-18T04:58:01.822Z,10.6
2022-09-18T04:59:01.511Z,10.6
2022-09-18T05:00:01.965Z,10.5
2022-09-18T05:01:01.613Z,10.5
2022-09-18T05:02:01.308Z,10.6
2022-09-18T05:03:01.777Z,10.5
2022-09-18T05:04:01.350Z,10.5
2022-09-18T05:05:01.920Z,10.6
2022-09-18T05:06:01.514Z,10.6
2022-09-18T05:07:01.080Z,10.6
2022-09-18T05:08:01.651Z,10.6
2022-09-18T05:09:01.285Z,10.6
2022-09-18T05:10:01.798Z,10.6
2022-09-18T05:11:01.390Z,10.6
2022-09-18T05:12:01.982Z,10.5
2022-09-18T05:13:01.555Z,10.5
2022-09-18T05:14:01.127Z,10.6
2022-09-18T05:15:01.828Z,10.6
2022-09-18T05:16:01.408Z,10.6
2022-09-18T05:17:01.922Z,10.6
2022-09-18T05:18:01.494Z,10.6
2022-09-18T05:19:01.066Z,10.7
2022-09-18T05:20:01.650Z,10.6
2022-09-18T05:21:01.244Z,10.6
2022-09-18T05:22:01.802Z,10.6
2022-09-18T05:23:01.376Z,10.6
2022-09-18T05:24:02.092Z,10.6
2022-09-18T05:25:01.595Z,10.6
2022-09-18T05:26:01.167Z,10.6
2022-09-18T05:27:01.740Z,10.6
2022-09-18T05:28:01.313Z,10.6
2022-09-18T05:29:01.903Z,10.6
2022-09-18T05:30:01.481Z,10.7
2022-09-18T05:31:01.251Z,10.7
2022-09-18T05:32:01.628Z,10.7
2022-09-18T05:33:01.201Z,10.7
2022-09-18T05:34:01.786Z,10.6
2022-09-18T05:35:01.359Z,10.7
2022-09-18T05:36:01.955Z,10.7
2022-09-18T05:37:01.528Z,10.7
2022-09-18T05:38:01.101Z,10.7
2022-09-18T05:39:01.685Z,10.7
2022-09-18T05:40:01.321Z,10.7
2022-09-18T05:41:01.896Z,10.7
2022-09-18T05:42:01.475Z,10.7
2022-09-18T05:43:02.043Z,10.7
2022-09-18T05:44:01.618Z,10.7
2022-09-18T05:45:01.958Z,10.7
2022-09-18T05:46:01.757Z,10.7
2022-09-18T05:47:01.564Z,10.7
2022-09-18T05:48:01.918Z,10.8
2022-09-18T05:49:01.490Z,10.7
2022-09-18T05:50:01.063Z,10.8
2022-09-18T05:51:01.637Z,10.8
2022-09-18T05:52:01.226Z,10.8
2022-09-18T05:53:01.784Z,10.8
2022-09-18T05:54:01.420Z,10.8
2022-09-18T05:55:01.936Z,10.8
2022-09-18T05:56:01.507Z,10.8
2022-09-18T05:57:01.092Z,10.8
2022-09-18T05:58:01.659Z,10.8
2022-09-18T05:59:01.231Z,10.8
2022-09-18T06:00:01.808Z,10.8
2022-09-18T06:01:01.383Z,10.8
2022-09-18T06:02:02.002Z,10.8
2022-09-18T06:03:01.774Z,10.9
2022-09-18T06:04:01.167Z,10.8
2022-09-18T06:05:01.742Z,10.9
2022-09-18T06:06:01.318Z,10.9
2022-09-18T06:07:01.907Z,10.9
2022-09-18T06:08:01.498Z,10.9
2022-09-18T06:09:01.167Z,10.9
2022-09-18T06:10:01.626Z,11
2022-09-18T06:11:01.204Z,10.9
2022-09-18T06:12:01.792Z,11
2022-09-18T06:13:01.410Z,10.9
2022-09-18T06:14:01.952Z,11
2022-09-18T06:15:01.528Z,10.9
2022-09-18T06:16:01.145Z,10.8
2022-09-18T06:17:01.697Z,10.9
2022-09-18T06:18:01.270Z,10.9
2022-09-18T06:19:01.964Z,10.9
2022-09-18T06:20:01.493Z,10.9
2022-09-18T06:21:01.068Z,10.9
2022-09-18T06:22:01.658Z,11
2022-09-18T06:23:01.230Z,11
2022-09-18T06:24:01.817Z,11
2022-09-18T06:25:01.413Z,11
2022-09-18T06:26:02.004Z,11
2022-09-18T06:27:01.574Z,11
2022-09-18T06:28:01.144Z,10.9
2022-09-18T06:29:01.715Z,11
2022-09-18T06:30:01.307Z,11
2022-09-18T06:31:01.904Z,11
2022-09-18T06:32:01.507Z,11
2022-09-18T06:33:01.080Z,11
2022-09-18T06:34:01.652Z,11
2022-09-18T06:35:01.358Z,11
2022-09-18T06:36:01.798Z,11
2022-09-18T06:37:01.368Z,11
2022-09-18T06:38:01.958Z,11.1
2022-09-18T06:39:01.623Z,11.1
2022-09-18T06:40:01.138Z,11.1
2022-09-18T06:41:01.690Z,11.1
2022-09-18T06:42:01.268Z,11.1
2022-09-18T06:43:01.858Z,11.1
2022-09-18T06:44:01.431Z,11.1
2022-09-18T06:45:02.001Z,11.1
2022-09-18T06:46:01.573Z,11.1
2022-09-18T06:47:01.185Z,11.1
2022-09-18T06:48:01.750Z,11.1
2022-09-18T06:49:01.322Z,11.2
2022-09-18T06:50:01.893Z,11.2
2022-09-18T06:51:01.603Z,11.1
2022-09-18T06:52:02.039Z,11
2022-09-18T06:53:01.609Z,11
2022-09-18T06:54:01.293Z,11.1
2022-09-18T06:55:01.767Z,11.1
2022-09-18T06:56:01.337Z,11
2022-09-18T06:57:01.907Z,11
2022-09-18T06:58:01.492Z,11.1
2022-09-18T06:59:01.065Z,11.1
2022-09-18T07:00:01.638Z,11
2022-09-18T07:01:01.305Z,11
2022-09-18T07:02:01.848Z,11
2022-09-18T07:03:01.449Z,11
2022-09-18T07:04:02.030Z,11.1
2022-09-18T07:05:01.602Z,11.1
2022-09-18T07:06:01.174Z,11.1
2022-09-18T07:07:01.870Z,11.1
2022-09-18T07:08:01.410Z,11.1
2022-09-18T07:09:02.036Z,11.1
2022-09-18T07:10:03.638Z,11.1
2022-09-18T07:11:01.149Z,11.1
2022-09-18T07:12:01.720Z,11.1
2022-09-18T07:13:01.307Z,11.1
2022-09-18T07:14:01.922Z,11.2
2022-09-18T07:15:01.495Z,11.2
2022-09-18T07:16:01.111Z,11.2
2022-09-18T07:17:01.668Z,11.2
2022-09-18T07:18:01.243Z,11.2
2022-09-18T07:19:01.833Z,11.2
2022-09-18T07:20:01.407Z,11.3
2022-09-18T07:21:01.978Z,11.3
2022-09-18T07:22:01.549Z,11.3
2022-09-18T07:23:01.251Z,11.3
2022-09-18T07:24:01.775Z,11.3
2022-09-18T07:25:01.366Z,11.3
2022-09-18T07:26:01.939Z,11.3
2022-09-18T07:27:01.535Z,11.4
2022-09-18T07:28:01.108Z,11.4
2022-09-18T07:29:01.720Z,11.5
2022-09-18T07:30:01.296Z,11.5
2022-09-18T07:31:01.975Z,11.4
2022-09-18T07:32:01.520Z,11.5
2022-09-18T07:33:01.096Z,11.6
2022-09-18T07:34:01.691Z,11.6
2022-09-18T07:35:01.263Z,11.7
2022-09-18T07:36:01.833Z,11.6
2022-09-18T07:37:01.418Z,11.6
2022-09-18T07:38:01.994Z,11.6
2022-09-18T07:39:01.877Z,11.6
2022-09-18T07:40:01.286Z,11.6
2022-09-18T07:41:01.837Z,11.6
2022-09-18T07:42:03.623Z,11.6
2022-09-18T07:43:01.951Z,11.6
2022-09-18T07:44:01.527Z,11.6
2022-09-18T07:45:01.099Z,11.5
2022-09-18T07:46:01.685Z,11.5
2022-09-18T07:47:01.312Z,11.5
2022-09-18T07:48:01.847Z,11.5
2022-09-18T07:49:01.417Z,11.5
2022-09-18T07:50:01.989Z,11.5
2022-09-18T07:51:01.584Z,11.5
2022-09-18T07:52:01.161Z,11.5
2022-09-18T07:53:01.731Z,11.6
2022-09-18T07:54:01.425Z,11.5
2022-09-18T07:55:02.009Z,11.5
2022-09-18T07:56:01.570Z,11.5
2022-09-18T07:57:01.150Z,11.6
2022-09-18T07:58:01.723Z,11.6
2022-09-18T07:59:01.294Z,11.6
2022-09-18T08:00:01.875Z,11.6
2022-09-18T08:01:01.477Z,11.6
2022-09-18T08:02:02.226Z,11.6
2022-09-18T08:03:01.939Z,11.6
2022-09-18T08:04:01.357Z,11.6
2022-09-18T08:05:01.864Z,11.6
2022-09-18T08:06:01.460Z,11.6
2022-09-18T08:07:02.011Z,11.6
2022-09-18T08:08:01.588Z,11.6
2022-09-18T08:09:01.162Z,11.6
2022-09-18T08:10:01.735Z,11.7
2022-09-18T08:11:01.452Z,11.7
2022-09-18T08:12:01.898Z,11.8
2022-09-18T08:13:01.490Z,11.8
2022-09-18T08:14:01.101Z,11.9
2022-09-18T08:15:01.643Z,11.9
2022-09-18T08:16:01.283Z,12
2022-09-18T08:17:01.792Z,12
2022-09-18T08:18:01.385Z,11.9
2022-09-18T08:19:01.940Z,11.9
2022-09-18T08:20:01.514Z,11.9
2022-09-18T08:21:01.094Z,11.8
2022-09-18T08:22:01.663Z,11.8
2022-09-18T08:23:01.255Z,11.8
2022-09-18T08:24:01.827Z,11.8
2022-09-18T08:25:01.438Z,11.8
2022-09-18T08:26:02.013Z,11.8
2022-09-18T08:27:01.704Z,11.8
2022-09-18T08:28:01.279Z,11.8
2022-09-18T08:29:01.853Z,11.7
2022-09-18T08:30:01.430Z,11.6
2022-09-18T08:31:02.074Z,11.5
2022-09-18T08:32:03.523Z,11.4
2022-09-18T08:33:01.214Z,11.4
2022-09-18T08:34:01.784Z,11.5
2022-09-18T08:35:01.353Z,11.5
2022-09-18T08:36:01.927Z,11.5
2022-09-18T08:37:01.501Z,11.5
2022-09-18T08:38:01.090Z,11.5
2022-09-18T08:39:01.679Z,11.3
2022-09-18T08:40:01.353Z,11.3
2022-09-18T08:41:01.834Z,11.4
2022-09-18T08:42:01.410Z,11.4
2022-09-18T08:43:02.148Z,11.3
2022-09-18T08:44:01.636Z,11.2
2022-09-18T08:45:01.214Z,11.2
2022-09-18T08:46:01.789Z,11
2022-09-18T08:47:01.488Z,10.8
2022-09-18T08:48:01.963Z,10.8
2022-09-18T08:49:01.538Z,10.7
2022-09-18T08:50:01.113Z,10.5
2022-09-18T08:51:01.688Z,10.5
2022-09-18T08:52:01.259Z,10.5
2022-09-18T08:53:01.846Z,10.5
2022-09-18T08:54:01.470Z,10.6
2022-09-18T08:55:02.006Z,10.5
2022-09-18T08:56:01.583Z,10.5
2022-09-18T08:57:01.170Z,10.6
2022-09-18T08:58:01.729Z,10.7
2022-09-18T08:59:01.426Z,10.8
2022-09-18T09:00:01.895Z,10.8
2022-09-18T09:01:01.546Z,10.8
2022-09-18T09:02:02.117Z,10.8
2022-09-18T09:03:01.707Z,10.9
2022-09-18T09:04:01.298Z,10.9
2022-09-18T09:05:01.871Z,11
2022-09-18T09:06:01.447Z,11
2022-09-18T09:07:02.041Z,11.1
2022-09-18T09:08:01.613Z,11
2022-09-18T09:09:01.287Z,11
2022-09-18T09:10:01.771Z,11
2022-09-18T09:11:01.350Z,11.2
2022-09-18T09:12:01.942Z,11.2
2022-09-18T09:13:01.536Z,11.2
2022-09-18T09:14:01.102Z,11.2
2022-09-18T09:15:01.849Z,11.1
2022-09-18T09:16:01.566Z,11.1
2022-09-18T09:17:01.939Z,11.2
2022-09-18T09:18:01.512Z,11.2
2022-09-18T09:19:01.085Z,11.1
2022-09-18T09:20:01.667Z,11.2
2022-09-18T09:21:01.271Z,11.2
2022-09-18T09:22:01.846Z,11.3
2022-09-18T09:23:01.422Z,11.3
2022-09-18T09:24:02.047Z,11.3
2022-09-18T09:25:01.654Z,11.3
2022-09-18T09:26:01.254Z,11.3
2022-09-18T09:27:01.848Z,11.3
2022-09-18T09:28:01.421Z,11.5
2022-09-18T09:29:01.995Z,11.5
2022-09-18T09:30:01.569Z,11.5
2022-09-18T09:31:01.258Z,11.4
2022-09-18T09:32:01.802Z,11.3
2022-09-18T09:33:01.365Z,11.4
2022-09-18T09:34:01.940Z,11.4
2022-09-18T09:35:01.519Z,11.5
2022-09-18T09:36:01.091Z,11.5
2022-09-18T09:37:01.684Z,11.5
2022-09-18T09:38:01.255Z,11.5
2022-09-18T09:39:01.871Z,11.6
2022-09-18T09:40:01.493Z,11.7
2022-09-18T09:41:02.036Z,11.7
2022-09-18T09:42:01.627Z,11.7
2022-09-18T09:43:01.201Z,11.7
2022-09-18T09:44:01.774Z,11.7
2022-09-18T09:45:01.346Z,11.7
2022-09-18T09:46:01.920Z,11.7
2022-09-18T09:47:01.705Z,11.7
2022-09-18T09:48:01.081Z,11.7
2022-09-18T09:49:01.655Z,11.7
2022-09-18T09:50:01.231Z,11.8
2022-09-18T09:51:01.807Z,11.8
2022-09-18T09:52:03.670Z,11.7
2022-09-18T09:53:01.934Z,11.8
2022-09-18T09:54:01.577Z,11.7
2022-09-18T09:55:01.085Z,11.8
2022-09-18T09:56:01.660Z,11.8
2022-09-18T09:57:01.252Z,11.9
2022-09-18T09:58:01.818Z,11.8
2022-09-18T09:59:03.973Z,11.9
2022-09-18T10:00:01.983Z,11.9
2022-09-18T10:01:01.688Z,12
2022-09-18T10:02:01.199Z,11.9
2022-09-18T10:03:01.888Z,11.9
2022-09-18T10:04:01.391Z,11.8
2022-09-18T10:05:01.966Z,11.9
2022-09-18T10:06:01.539Z,11.9
2022-09-18T10:07:01.112Z,12.1
2022-09-18T10:08:01.699Z,12.2
2022-09-18T10:09:01.343Z,12.3
2022-09-18T10:10:01.873Z,12.3
2022-09-18T10:11:01.445Z,12.3
2022-09-18T10:12:02.020Z,12.4
2022-09-18T10:13:01.591Z,12.2
2022-09-18T10:14:01.180Z,12.3
2022-09-18T10:15:01.793Z,12.3
2022-09-18T10:16:01.459Z,12.3
2022-09-18T10:17:01.999Z,12.4
2022-09-18T10:18:01.578Z,12.5
2022-09-18T10:19:01.293Z,12.6
2022-09-18T10:20:01.742Z,12.5
2022-09-18T10:21:01.317Z,12.4
2022-09-18T10:22:01.888Z,12.4
2022-09-18T10:23:01.466Z,12.4
2022-09-18T10:24:02.127Z,12.4
2022-09-18T10:25:01.739Z,12.4
2022-09-18T10:26:01.290Z,12.5
2022-09-18T10:27:01.880Z,12.5
2022-09-18T10:28:01.453Z,12.5
2022-09-18T10:29:02.026Z,12.6
2022-09-18T10:30:01.617Z,12.6
2022-09-18T10:31:01.279Z,12.6
2022-09-18T10:32:01.795Z,12.6
2022-09-18T10:33:01.366Z,12.7
2022-09-18T10:34:01.938Z,12.7
2022-09-18T10:35:01.633Z,12.7
2022-09-18T10:36:01.110Z,12.8
2022-09-18T10:37:01.702Z,13
2022-09-18T10:38:01.280Z,13.1
2022-09-18T10:39:01.888Z,13.2
2022-09-18T10:40:01.683Z,13.2
2022-09-18T10:41:02.056Z,13.3
2022-09-18T10:42:01.646Z,13.3
2022-09-18T10:43:01.216Z,13.3
2022-09-18T10:44:01.791Z,13.2
2022-09-18T10:45:02.304Z,13.3
2022-09-18T10:46:01.942Z,13.2
2022-09-18T10:47:01.604Z,13.3
2022-09-18T10:48:01.091Z,13.1
2022-09-18T10:49:01.665Z,13
2022-09-18T10:50:01.235Z,13.1
2022-09-18T10:51:01.943Z,13
2022-09-18T10:52:01.456Z,13
2022-09-18T10:53:02.031Z,13
2022-09-18T10:54:01.693Z,13.1
2022-09-18T10:55:01.285Z,13.1
2022-09-18T10:56:01.852Z,12.9
2022-09-18T10:57:01.429Z,12.8
2022-09-18T10:58:02.004Z,12.9
2022-09-18T10:59:01.576Z,12.9
2022-09-18T11:00:01.174Z,13
2022-09-18T11:01:01.815Z,13.1
2022-09-18T11:02:01.523Z,13.1
2022-09-18T11:03:01.976Z,13.2
2022-09-18T11:04:01.551Z,13.2
2022-09-18T11:05:01.127Z,13.3
2022-09-18T11:06:01.700Z,13
2022-09-18T11:07:01.414Z,13.1
2022-09-18T11:08:01.878Z,13.1
2022-09-18T11:09:01.584Z,13.1
2022-09-18T11:10:02.042Z,13
2022-09-18T11:11:01.654Z,12.9
2022-09-18T11:12:01.244Z,12.9
2022-09-18T11:13:01.831Z,12.8
2022-09-18T11:14:01.406Z,12.7
2022-09-18T11:15:01.978Z,12.7
2022-09-18T11:16:01.658Z,12.7
2022-09-18T11:17:01.136Z,12.7
2022-09-18T11:18:01.727Z,12.9
2022-09-18T11:19:05.215Z,13
2022-09-18T11:20:01.839Z,12.9
2022-09-18T11:21:01.410Z,13
2022-09-18T11:22:01.985Z,13.1
2022-09-18T11:23:01.700Z,13.2
2022-09-18T11:24:01.148Z,13.1
2022-09-18T11:25:01.738Z,13.2
2022-09-18T11:26:01.311Z,13.3
2022-09-18T11:27:01.883Z,13.3
2022-09-18T11:28:01.502Z,13.2
2022-09-18T11:29:02.046Z,13.2
2022-09-18T11:30:01.639Z,13.1
2022-09-18T11:31:01.412Z,13.1
2022-09-18T11:32:01.836Z,13.2
2022-09-18T11:33:01.464Z,13
2022-09-18T11:34:06.226Z,12.8
2022-09-18T11:35:01.584Z,12.8
2022-09-18T11:36:01.162Z,12.8
2022-09-18T11:37:01.831Z,12.8
2022-09-18T11:38:01.400Z,12.9
2022-09-18T11:39:02.194Z,12.8
2022-09-18T11:40:01.673Z,12.8
2022-09-18T11:41:01.178Z,12.9
2022-09-18T11:42:01.751Z,12.9
2022-09-18T11:43:01.342Z,13
2022-09-18T11:44:01.927Z,13
2022-09-18T11:45:01.511Z,12.9
2022-09-18T11:46:01.086Z,13
2022-09-18T11:47:01.751Z,12.9
2022-09-18T11:48:01.349Z,13
2022-09-18T11:49:04.581Z,13
2022-09-18T11:50:01.451Z,13.1
2022-09-18T11:51:02.026Z,13
2022-09-18T11:52:01.600Z,12.9
2022-09-18T11:53:01.196Z,12.8
2022-09-18T11:54:01.834Z,12.8
2022-09-18T11:55:01.540Z,12.8
2022-09-18T11:56:01.998Z,12.9
2022-09-18T11:57:01.576Z,12.9
2022-09-18T11:58:01.165Z,12.9
2022-09-18T11:59:01.734Z,12.9
2022-09-18T12:00:01.305Z,12.9
2022-09-18T12:01:05.115Z,12.9
2022-09-18T12:02:01.506Z,13
2022-09-18T12:03:01.172Z,13
2022-09-18T12:04:01.711Z,13
2022-09-18T12:05:01.286Z,12.9
2022-09-18T12:06:01.857Z,12.9
2022-09-18T12:07:01.429Z,12.8
2022-09-18T12:08:00.661Z,12.9
2022-09-18T12:09:00.291Z,13
2022-09-18T12:09:59.872Z,12.9
2022-09-18T12:11:00.472Z,12.9
2022-09-18T12:12:00.043Z,12.8
2022-09-18T12:13:00.634Z,12.7
2022-09-18T12:14:00.208Z,12.7
2022-09-18T12:14:59.781Z,12.6
2022-09-18T12:16:00.384Z,12.6
2022-09-18T12:17:01.001Z,12.7
2022-09-18T12:17:59.786Z,12.6
2022-09-18T12:19:00.360Z,12.5
2022-09-18T12:19:59.765Z,12.5
2022-09-18T12:21:00.339Z,12.6
2022-09-18T12:21:59.931Z,12.5
2022-09-18T12:23:00.486Z,12.6
2022-09-18T12:24:00.058Z,12.7
2022-09-18T12:25:00.629Z,12.7
2022-09-18T12:26:00.201Z,12.7
2022-09-18T12:26:59.908Z,12.7
2022-09-18T12:28:00.346Z,12.6
2022-09-18T12:28:59.920Z,12.6
2022-09-18T12:30:00.489Z,12.6
2022-09-18T12:31:00.080Z,12.4
2022-09-18T12:32:00.706Z,12.5
2022-09-18T12:33:00.303Z,12.5
2022-09-18T12:33:59.874Z,12.5
2022-09-18T12:35:00.446Z,12.5
2022-09-18T12:36:00.019Z,12.6
2022-09-18T12:37:00.607Z,12.6
2022-09-18T12:38:00.177Z,12.6
2022-09-18T12:39:00.465Z,12.6
2022-09-18T12:40:01.063Z,12.5
2022-09-18T12:41:00.662Z,12.4
2022-09-18T12:42:01.252Z,12.4
2022-09-18T12:43:00.948Z,12.3
2022-09-18T12:44:00.398Z,12.3
2022-09-18T12:45:00.969Z,12.2
2022-09-18T12:46:00.577Z,12.3
2022-09-18T12:47:01.140Z,12.3
2022-09-18T12:48:00.711Z,12.4
2022-09-18T12:49:01.282Z,12.4
2022-09-18T12:50:00.869Z,12.4
2022-09-18T12:51:00.459Z,12.4
2022-09-18T12:52:01.173Z,12.4
2022-09-18T12:53:09.329Z,12.4
2022-09-18T12:54:06.101Z,12.3
2022-09-18T12:55:00.727Z,12.2
2022-09-18T12:56:01.346Z,12.1
2022-09-18T12:57:00.919Z,12
2022-09-18T12:58:00.495Z,12
2022-09-18T12:59:01.186Z,12
2022-09-18T13:00:00.730Z,12.1
2022-09-18T13:01:01.365Z,12
2022-09-18T13:02:01.014Z,12.1
2022-09-18T13:03:00.568Z,12.1
2022-09-18T13:04:01.106Z,12.1
2022-09-18T13:05:00.678Z,12.2
2022-09-18T13:06:01.268Z,12.2
2022-09-18T13:07:00.840Z,12
2022-09-18T13:08:00.418Z,11.9
2022-09-18T13:09:01.034Z,11.7
2022-09-18T13:10:00.652Z,11.5
2022-09-18T13:11:01.242Z,11.4
2022-09-18T13:12:00.813Z,11.3
2022-09-18T13:13:00.406Z,11.3
2022-09-18T13:14:00.970Z,11.3
2022-09-18T13:15:00.662Z,11.3
2022-09-18T13:16:01.177Z,11.1
2022-09-18T13:17:01.553Z,11.2
2022-09-18T13:18:02.090Z,11.2
2022-09-18T13:19:01.663Z,11.1
2022-09-18T13:20:01.235Z,11.1
2022-09-18T13:21:01.809Z,11.1
2022-09-18T13:22:01.381Z,11.2
2022-09-18T13:23:01.970Z,11.2